sensor_id;sensor_type;location;lat;lon;timestamp;pressure;altitude;pressure_sealevel;temperature;humidity
74834;BME280;63361;52.384;20.930;2022-09-09T16:53:51;100653.78;;;23.13;50.20
74834;BME280;63361;52.384;20.930;2022-09-09T16:56:19;100646.72;;;23.67;52.60
74834;BME280;63361;52.384;20.930;2022-09-09T17:05:16;100632.41;;;22.91;50.29
74834;BME280;63361;52.384;20.930;2022-09-09T17:07:41;100636.13;;;22.52;51.07
74834;BME280;63361;52.384;20.930;2022-09-09T17:10:08;100633.59;;;22.15;51.98
74834;BME280;63361;52.384;20.930;2022-09-09T17:12:34;100651.50;;;22.09;51.97
74834;BME280;63361;52.384;20.930;2022-09-09T17:15:01;100657.94;;;22.01;52.36
74834;BME280;63361;52.384;20.930;2022-09-09T17:17:28;100625.84;;;21.77;52.56
74834;BME280;63361;52.384;20.930;2022-09-09T17:19:53;100653.09;;;22.10;52.08
74834;BME280;63361;52.384;20.930;2022-09-09T17:22:19;100663.69;;;22.24;52.75
74834;BME280;63361;52.384;20.930;2022-09-09T17:24:45;100664.06;;;22.38;51.59
74834;BME280;63361;52.384;20.930;2022-09-09T17:27:32;100667.88;;;22.65;52.05
74834;BME280;63361;52.384;20.930;2022-09-09T17:33:38;100680.88;;;24.39;47.96
74834;BME280;63361;52.384;20.930;2022-09-09T17:36:19;100689.88;;;24.17;48.53
74834;BME280;63361;52.384;20.930;2022-09-09T17:38:46;100690.81;;;23.86;49.53
74834;BME280;63361;52.384;20.930;2022-09-09T17:41:20;100690.56;;;23.56;49.81
74834;BME280;63361;52.384;20.930;2022-09-09T17:43:47;100693.22;;;23.18;50.32
74834;BME280;63361;52.384;20.930;2022-09-09T17:48:38;100696.13;;;22.62;51.67
74834;BME280;63361;52.384;20.930;2022-09-09T17:58:56;100683.66;;;15.52;76.09
74834;BME280;63361;52.384;20.930;2022-09-09T18:01:27;100676.53;;;14.73;79.31
74834;BME280;63361;52.384;20.930;2022-09-09T18:03:54;100683.22;;;14.16;82.61
74834;BME280;63361;52.384;20.930;2022-09-09T18:06:23;100656.38;;;13.63;84.77
74834;BME280;63361;52.384;20.930;2022-09-09T18:08:57;100690.25;;;13.66;85.53
74834;BME280;63361;52.384;20.930;2022-09-09T18:11:25;100706.72;;;13.51;86.67
74834;BME280;63361;52.384;20.930;2022-09-09T18:13:57;100701.06;;;13.47;87.11
74834;BME280;63361;52.384;20.930;2022-09-09T18:16:25;100689.75;;;13.21;88.23
74834;BME280;63361;52.384;20.930;2022-09-09T18:18:51;100701.97;;;13.19;88.96
74834;BME280;63361;52.384;20.930;2022-09-09T18:21:18;100714.91;;;13.27;89.21
74834;BME280;63361;52.384;20.930;2022-09-09T18:23:45;100706.59;;;13.18;89.17
74834;BME280;63361;52.384;20.930;2022-09-09T18:26:21;100722.34;;;13.16;90.07
74834;BME280;63361;52.384;20.930;2022-09-09T18:28:53;100727.19;;;13.14;90.42
74834;BME280;63361;52.384;20.930;2022-09-09T18:31:21;100716.53;;;12.99;90.97
74834;BME280;63361;52.384;20.930;2022-09-09T18:33:52;100719.47;;;13.02;90.60
74834;BME280;63361;52.384;20.930;2022-09-09T18:36:33;100724.91;;;13.02;91.10
74834;BME280;63361;52.384;20.930;2022-09-09T18:38:59;100721.47;;;12.97;90.87
74834;BME280;63361;52.384;20.930;2022-09-09T18:41:32;100718.75;;;12.97;91.20
74834;BME280;63361;52.384;20.930;2022-09-09T18:44:00;100719.84;;;12.96;91.57
74834;BME280;63361;52.384;20.930;2022-09-09T18:46:28;100702.41;;;12.78;91.34
74834;BME280;63361;52.384;20.930;2022-09-09T18:48:54;100728.81;;;12.91;91.93
74834;BME280;63361;52.384;20.930;2022-09-09T18:51:22;100725.03;;;12.92;91.86
74834;BME280;63361;52.384;20.930;2022-09-09T18:53:49;100719.59;;;12.92;91.38
74834;BME280;63361;52.384;20.930;2022-09-09T18:56:15;100715.28;;;12.91;91.53
74834;BME280;63361;52.384;20.930;2022-09-09T18:58:40;100732.63;;;12.90;91.95
74834;BME280;63361;52.384;20.930;2022-09-09T19:01:10;100735.84;;;12.92;92.25
74834;BME280;63361;52.384;20.930;2022-09-09T19:03:36;100720.28;;;12.79;92.44
74834;BME280;63361;52.384;20.930;2022-09-09T19:06:10;100714.00;;;12.84;92.35
74834;BME280;63361;52.384;20.930;2022-09-09T19:08:38;100719.66;;;12.87;92.07
74834;BME280;63361;52.384;20.930;2022-09-09T19:11:07;100714.06;;;12.79;92.55
74834;BME280;63361;52.384;20.930;2022-09-09T19:13:34;100727.53;;;12.84;92.57
74834;BME280;63361;52.384;20.930;2022-09-09T19:16:08;100725.94;;;12.83;93.00
74834;BME280;63361;52.384;20.930;2022-09-09T19:18:34;100736.53;;;12.79;93.41
74834;BME280;63361;52.384;20.930;2022-09-09T19:23:35;100737.38;;;12.75;93.39
74834;BME280;63361;52.384;20.930;2022-09-09T19:26:02;100711.25;;;12.60;93.61
74834;BME280;63361;52.384;20.930;2022-09-09T19:28:27;100710.50;;;12.54;93.61
74834;BME280;63361;52.384;20.930;2022-09-09T19:30:53;100721.84;;;12.56;94.07
74834;BME280;63361;52.384;20.930;2022-09-09T19:33:20;100714.81;;;12.55;94.73
74834;BME280;63361;52.384;20.930;2022-09-09T19:35:56;100734.31;;;12.57;94.54
74834;BME280;63361;52.384;20.930;2022-09-09T19:38:21;100733.16;;;12.63;94.90
74834;BME280;63361;52.384;20.930;2022-09-09T19:40:46;100712.38;;;12.54;94.24
74834;BME280;63361;52.384;20.930;2022-09-09T19:43:12;100721.03;;;12.56;94.64
74834;BME280;63361;52.384;20.930;2022-09-09T19:45:38;100709.69;;;12.54;94.69
74834;BME280;63361;52.384;20.930;2022-09-09T19:48:03;100732.28;;;12.68;94.06
74834;BME280;63361;52.384;20.930;2022-09-09T19:50:30;100709.66;;;12.59;94.11
74834;BME280;63361;52.384;20.930;2022-09-09T19:52:55;100705.31;;;12.58;94.75
74834;BME280;63361;52.384;20.930;2022-09-09T19:55:20;100709.41;;;12.55;94.21
74834;BME280;63361;52.384;20.930;2022-09-09T19:57:46;100709.75;;;12.49;93.89
74834;BME280;63361;52.384;20.930;2022-09-09T20:00:12;100728.84;;;12.62;94.28
74834;BME280;63361;52.384;20.930;2022-09-09T20:02:37;100703.19;;;12.55;94.33
74834;BME280;63361;52.384;20.930;2022-09-09T20:05:04;100724.25;;;12.63;94.24
74834;BME280;63361;52.384;20.930;2022-09-09T20:07:31;100725.38;;;12.57;94.16
74834;BME280;63361;52.384;20.930;2022-09-09T20:09:57;100711.66;;;12.48;94.39
74834;BME280;63361;52.384;20.930;2022-09-09T20:12:22;100719.22;;;12.51;94.05
74834;BME280;63361;52.384;20.930;2022-09-09T20:14:48;100725.91;;;12.59;94.22
74834;BME280;63361;52.384;20.930;2022-09-09T20:17:13;100704.91;;;12.46;94.10
74834;BME280;63361;52.384;20.930;2022-09-09T20:19:38;100706.56;;;12.42;93.39
74834;BME280;63361;52.384;20.930;2022-09-09T20:22:04;100700.66;;;12.35;93.44
74834;BME280;63361;52.384;20.930;2022-09-09T20:24:29;100707.69;;;12.36;93.50
74834;BME280;63361;52.384;20.930;2022-09-09T20:26:54;100710.91;;;12.38;93.72
74834;BME280;63361;52.384;20.930;2022-09-09T20:29:20;100727.63;;;12.50;93.61
74834;BME280;63361;52.384;20.930;2022-09-09T20:31:46;100733.63;;;12.42;93.76
74834;BME280;63361;52.384;20.930;2022-09-09T20:34:14;100723.34;;;12.39;93.78
74834;BME280;63361;52.384;20.930;2022-09-09T20:36:40;100725.25;;;12.38;93.73
74834;BME280;63361;52.384;20.930;2022-09-09T20:39:09;100726.06;;;12.39;93.70
74834;BME280;63361;52.384;20.930;2022-09-09T20:41:36;100735.22;;;12.48;94.11
74834;BME280;63361;52.384;20.930;2022-09-09T20:44:10;100738.72;;;12.48;94.24
74834;BME280;63361;52.384;20.930;2022-09-09T20:46:41;100737.84;;;12.53;94.01
74834;BME280;63361;52.384;20.930;2022-09-09T20:49:08;100726.31;;;12.42;93.67
74834;BME280;63361;52.384;20.930;2022-09-09T20:51:35;100715.03;;;12.35;93.85
74834;BME280;63361;52.384;20.930;2022-09-09T20:54:09;100722.53;;;12.38;93.98
74834;BME280;63361;52.384;20.930;2022-09-09T20:56:37;100726.81;;;12.49;93.99
74834;BME280;63361;52.384;20.930;2022-09-09T20:59:05;100722.75;;;12.47;94.28
74834;BME280;63361;52.384;20.930;2022-09-09T21:01:31;100694.75;;;12.27;94.02
74834;BME280;63361;52.384;20.930;2022-09-09T21:03:56;100693.78;;;12.18;94.10
74834;BME280;63361;52.384;20.930;2022-09-09T21:06:22;100705.56;;;12.32;93.64
74834;BME280;63361;52.384;20.930;2022-09-09T21:08:48;100727.75;;;12.35;94.34
74834;BME280;63361;52.384;20.930;2022-09-09T21:11:13;100715.31;;;12.33;93.86
74834;BME280;63361;52.384;20.930;2022-09-09T21:13:39;100703.94;;;12.31;93.30
74834;BME280;63361;52.384;20.930;2022-09-09T21:16:07;100734.97;;;12.44;93.73
74834;BME280;63361;52.384;20.930;2022-09-09T21:18:33;100709.72;;;12.20;93.64
74834;BME280;63361;52.384;20.930;2022-09-09T21:21:00;100719.22;;;12.17;93.91
74834;BME280;63361;52.384;20.930;2022-09-09T21:23:25;100726.50;;;12.22;93.83
74834;BME280;63361;52.384;20.930;2022-09-09T21:25:52;100742.38;;;12.33;94.09
74834;BME280;63361;52.384;20.930;2022-09-09T21:28:18;100760.97;;;12.40;94.45
74834;BME280;63361;52.384;20.930;2022-09-09T21:30:49;100761.25;;;12.39;94.23
74834;BME280;63361;52.384;20.930;2022-09-09T21:33:16;100736.44;;;12.26;93.92
74834;BME280;63361;52.384;20.930;2022-09-09T21:35:42;100741.34;;;12.24;94.36
74834;BME280;63361;52.384;20.930;2022-09-09T21:38:11;100754.81;;;12.35;94.14
74834;BME280;63361;52.384;20.930;2022-09-09T21:40:38;100745.94;;;12.24;94.23
74834;BME280;63361;52.384;20.930;2022-09-09T21:43:04;100743.22;;;12.24;94.03
74834;BME280;63361;52.384;20.930;2022-09-09T21:45:30;100752.38;;;12.33;93.75
74834;BME280;63361;52.384;20.930;2022-09-09T21:47:58;100746.44;;;12.31;94.33
74834;BME280;63361;52.384;20.930;2022-09-09T21:50:24;100736.97;;;12.28;94.36
74834;BME280;63361;52.384;20.930;2022-09-09T21:52:50;100747.25;;;12.31;94.34
74834;BME280;63361;52.384;20.930;2022-09-09T21:55:15;100734.91;;;12.20;94.15
74834;BME280;63361;52.384;20.930;2022-09-09T21:57:41;100718.44;;;12.12;94.06
74834;BME280;63361;52.384;20.930;2022-09-09T22:00:06;100725.47;;;12.13;94.50
74834;BME280;63361;52.384;20.930;2022-09-09T22:02:43;100736.19;;;12.23;95.02
74834;BME280;63361;52.384;20.930;2022-09-09T22:05:09;100733.50;;;12.23;93.93
74834;BME280;63361;52.384;20.930;2022-09-09T22:07:35;100742.94;;;12.30;94.50
74834;BME280;63361;52.384;20.930;2022-09-09T22:10:00;100731.03;;;12.26;94.18
74834;BME280;63361;52.384;20.930;2022-09-09T22:12:26;100745.72;;;12.20;94.52
74834;BME280;63361;52.384;20.930;2022-09-09T22:14:52;100752.75;;;12.21;94.68
74834;BME280;63361;52.384;20.930;2022-09-09T22:17:21;100753.31;;;12.18;94.48
74834;BME280;63361;52.384;20.930;2022-09-09T22:19:49;100734.41;;;12.08;94.50
74834;BME280;63361;52.384;20.930;2022-09-09T22:22:14;100733.31;;;12.14;94.64
74834;BME280;63361;52.384;20.930;2022-09-09T22:24:40;100741.16;;;12.11;94.47
74834;BME280;63361;52.384;20.930;2022-09-09T22:27:05;100720.72;;;11.94;94.83
74834;BME280;63361;52.384;20.930;2022-09-09T22:29:31;100730.69;;;12.04;94.85
74834;BME280;63361;52.384;20.930;2022-09-09T22:31:57;100728.53;;;12.01;95.11
74834;BME280;63361;52.384;20.930;2022-09-09T22:34:23;100744.91;;;12.20;94.67
74834;BME280;63361;52.384;20.930;2022-09-09T22:36:48;100727.38;;;12.07;95.02
74834;BME280;63361;52.384;20.930;2022-09-09T22:39:15;100727.72;;;12.01;94.62
74834;BME280;63361;52.384;20.930;2022-09-09T22:41:40;100719.34;;;12.02;94.89
74834;BME280;63361;52.384;20.930;2022-09-09T22:44:06;100729.31;;;12.07;94.63
74834;BME280;63361;52.384;20.930;2022-09-09T22:46:32;100735.56;;;12.02;94.25
74834;BME280;63361;52.384;20.930;2022-09-09T22:48:57;100746.84;;;12.14;94.68
74834;BME280;63361;52.384;20.930;2022-09-09T22:51:23;100716.13;;;11.95;94.93
74834;BME280;63361;52.384;20.930;2022-09-09T22:53:48;100721.25;;;11.96;94.82
74834;BME280;63361;52.384;20.930;2022-09-09T22:56:16;100737.44;;;12.07;94.47
74834;BME280;63361;52.384;20.930;2022-09-09T22:58:42;100734.47;;;12.03;94.55
74834;BME280;63361;52.384;20.930;2022-09-09T23:01:12;100733.34;;;12.09;94.82
74834;BME280;63361;52.384;20.930;2022-09-09T23:03:39;100730.06;;;12.12;94.89
74834;BME280;63361;52.384;20.930;2022-09-09T23:06:08;100707.16;;;12.00;94.70
74834;BME280;63361;52.384;20.930;2022-09-09T23:08:35;100721.78;;;11.98;94.61
74834;BME280;63361;52.384;20.930;2022-09-09T23:11:09;100719.06;;;12.04;94.23
74834;BME280;63361;52.384;20.930;2022-09-09T23:13:39;100710.69;;;12.00;94.76
74834;BME280;63361;52.384;20.930;2022-09-09T23:18:34;100720.66;;;12.05;94.42
74834;BME280;63361;52.384;20.930;2022-09-09T23:21:00;100708.53;;;11.97;94.60
74834;BME280;63361;52.384;20.930;2022-09-09T23:23:27;100725.28;;;12.04;95.33
74834;BME280;63361;52.384;20.930;2022-09-09T23:25:52;100690.22;;;11.84;94.96
74834;BME280;63361;52.384;20.930;2022-09-09T23:28:17;100693.13;;;11.92;94.56
74834;BME280;63361;52.384;20.930;2022-09-09T23:30:43;100694.75;;;11.93;95.07
74834;BME280;63361;52.384;20.930;2022-09-09T23:33:08;100714.47;;;11.99;95.45
74834;BME280;63361;52.384;20.930;2022-09-09T23:35:34;100706.09;;;11.95;94.97
74834;BME280;63361;52.384;20.930;2022-09-09T23:37:59;100692.31;;;11.92;95.09
74834;BME280;63361;52.384;20.930;2022-09-09T23:40:24;100697.47;;;11.93;95.42
74834;BME280;63361;52.384;20.930;2022-09-09T23:42:51;100685.63;;;11.84;94.97
74834;BME280;63361;52.384;20.930;2022-09-09T23:45:18;100705.56;;;11.98;95.47
74834;BME280;63361;52.384;20.930;2022-09-09T23:47:43;100694.81;;;11.88;95.30
74834;BME280;63361;52.384;20.930;2022-09-09T23:50:09;100715.00;;;12.01;95.92
74834;BME280;63361;52.384;20.930;2022-09-09T23:52:34;100692.66;;;11.85;95.44
74834;BME280;63361;52.384;20.930;2022-09-09T23:55:01;100706.16;;;11.90;95.83
74834;BME280;63361;52.384;20.930;2022-09-09T23:57:26;100691.56;;;11.86;96.05
74834;BME280;63361;52.384;20.930;2022-09-09T23:59:51;100682.94;;;11.84;95.69
